Time;durP1;ratioP1;P1;durP2;ratioP2;P2;SDS_P1;SDS_P2;PMS_P1;PMS_P2;Temp;Humidity;BMP_temperature;BMP_pressure;BME280_temperature;BME280_humidity;BME280_pressure;Samples;Min_cycle;Max_cycle;Signal;HPM_P1;HPM_P2
2021/05/12 00:00:28;;;;;;;13.25;8.20;;;12.40;93.00;;;;;;5062795;28;20483;-69
2021/05/12 00:02:54;;;;;;;13.07;8.23;;;12.40;93.10;;;;;;5058337;28;20124;-69
2021/05/12 00:05:22;;;;;;;10.48;7.88;;;12.40;93.10;;;;;;5061585;28;20043;-69
2021/05/12 00:07:47;;;;;;;15.82;9.60;;;12.40;93.10;;;;;;5058599;28;20040;-68
2021/05/12 00:10:14;;;;;;;12.15;8.43;;;12.40;93.10;;;;;;5059390;28;20032;-69
2021/05/12 00:12:41;;;;;;;12.85;8.23;;;12.40;93.20;;;;;;5055570;28;20140;-69
2021/05/12 00:15:12;;;;;;;14.50;9.15;;;12.40;93.20;;;;;;5056777;28;20039;-69
2021/05/12 00:17:40;;;;;;;12.90;8.48;;;12.30;93.30;;;;;;5056247;28;20104;-69
2021/05/12 00:20:08;;;;;;;13.77;10.05;;;12.30;93.30;;;;;;5057372;28;20016;-69
2021/05/12 00:25:02;;;;;;;12.60;7.85;;;12.30;93.40;;;;;;5060084;28;20058;-69
2021/05/12 00:27:28;;;;;;;13.50;7.28;;;12.30;93.40;;;;;;5060840;28;20029;-69
2021/05/12 00:29:53;;;;;;;13.38;7.47;;;12.30;93.60;;;;;;5070659;28;20513;-69
2021/05/12 00:32:19;;;;;;;13.80;7.93;;;12.30;93.50;;;;;;5060090;28;20031;-69
2021/05/12 00:34:45;;;;;;;13.93;7.57;;;12.30;93.50;;;;;;5064452;28;20036;-69
2021/05/12 00:37:11;;;;;;;12.32;7.18;;;12.30;93.40;;;;;;5061040;28;20129;-69
2021/05/12 00:39:37;;;;;;;10.65;7.40;;;12.30;93.30;;;;;;5066034;28;20477;-69
2021/05/12 00:42:02;;;;;;;13.80;7.50;;;12.30;93.30;;;;;;5060297;28;20459;-69
2021/05/12 00:44:28;;;;;;;11.02;6.30;;;12.20;93.30;;;;;;5062997;28;20060;-69
2021/05/12 00:46:54;;;;;;;8.95;6.40;;;12.30;93.30;;;;;;5061919;28;20040;-69
2021/05/12 00:49:22;;;;;;;10.00;6.18;;;12.30;93.30;;;;;;5060420;28;20078;-69
2021/05/12 00:51:48;;;;;;;8.60;5.68;;;12.30;93.40;;;;;;5052248;28;20112;-69
2021/05/12 00:54:14;;;;;;;9.75;6.22;;;12.30;93.30;;;;;;5067730;28;20115;-69
2021/05/12 00:56:42;;;;;;;10.77;5.57;;;12.30;93.20;;;;;;5059719;28;20028;-69
2021/05/12 00:59:09;;;;;;;8.93;5.80;;;12.30;93.20;;;;;;5063992;28;20086;-69
2021/05/12 01:01:35;;;;;;;9.57;5.72;;;12.30;93.20;;;;;;5059701;28;20534;-69
2021/05/12 01:04:01;;;;;;;9.13;5.18;;;12.30;93.10;;;;;;5060286;28;20036;-69
2021/05/12 01:06:35;;;;;;;10.27;5.55;;;12.20;93.10;;;;;;5059012;28;20360;-69
2021/05/12 01:09:02;;;;;;;10.88;4.95;;;12.30;93.00;;;;;;5058191;28;20039;-69
2021/05/12 01:11:28;;;;;;;7.43;5.07;;;12.20;93.10;;;;;;5059191;28;20032;-69
2021/05/12 01:13:55;;;;;;;10.82;5.18;;;12.20;93.10;;;;;;5058530;28;20039;-69
2021/05/12 01:16:21;;;;;;;10.40;4.80;;;12.20;93.10;;;;;;5059767;28;20036;-68
2021/05/12 01:18:47;;;;;;;9.48;4.93;;;12.10;93.10;;;;;;5062794;28;20024;-69
2021/05/12 01:21:14;;;;;;;8.02;4.82;;;12.20;93.20;;;;;;5064244;28;20020;-70
2021/05/12 01:23:47;;;;;;;9.75;5.65;;;12.20;93.10;;;;;;5043287;28;20036;-69
2021/05/12 01:26:18;;;;;;;6.15;3.97;;;12.20;93.20;;;;;;5071005;28;20119;-67
2021/05/12 01:28:45;;;;;;;;;;;12.10;93.10;;;;;;5059131;28;20051;-68
2021/05/12 01:31:29;;;;;;;9.60;4.00;;;12.20;93.00;;;;;;5058505;28;19920;-70
2021/05/12 01:33:55;;;;;;;9.63;4.50;;;12.20;93.30;;;;;;5063737;28;20032;-69
2021/05/12 01:36:22;;;;;;;7.15;4.00;;;12.20;93.10;;;;;;5057540;28;20391;-69
2021/05/12 01:38:49;;;;;;;8.23;5.20;;;12.20;93.30;;;;;;5059288;28;20021;-69
2021/05/12 01:41:16;;;;;;;9.98;4.82;;;12.20;93.00;;;;;;5059368;28;20033;-69
2021/05/12 01:43:42;;;;;;;5.95;3.80;;;12.10;93.10;;;;;;5060113;28;20025;-69
2021/05/12 01:46:08;;;;;;;6.88;3.92;;;12.20;93.20;;;;;;5061924;28;20037;-70
2021/05/12 01:48:35;;;;;;;7.03;3.97;;;12.20;93.20;;;;;;5062702;28;20494;-70
2021/05/12 01:51:03;;;;;;;9.43;4.43;;;12.20;93.20;;;;;;5065912;28;20032;-70
2021/05/12 01:53:29;;;;;;;8.75;4.53;;;12.20;93.00;;;;;;5059082;28;20047;-70
2021/05/12 01:55:55;;;;;;;7.78;4.18;;;12.20;92.90;;;;;;5060677;28;20534;-69
2021/05/12 01:58:23;;;;;;;9.70;4.65;;;12.10;92.90;;;;;;5057184;28;20070;-69
2021/05/12 02:00:51;;;;;;;11.48;5.47;;;12.10;93.00;;;;;;5060274;28;20048;-68
2021/05/12 02:03:20;;;;;;;8.82;4.30;;;12.10;93.00;;;;;;5060753;28;20235;-69
2021/05/12 02:05:48;;;;;;;11.40;5.47;;;12.10;93.10;;;;;;5060205;28;20086;-68
2021/05/12 02:08:20;;;;;;;7.00;5.28;;;12.10;93.00;;;;;;5059981;28;20031;-68
2021/05/12 02:10:46;;;;;;;7.60;5.45;;;12.10;93.00;;;;;;5062441;28;20494;-69
2021/05/12 02:13:13;;;;;;;13.45;6.78;;;12.10;93.10;;;;;;5060443;28;20587;-68
2021/05/12 02:15:40;;;;;;;10.30;6.28;;;12.10;93.00;;;;;;5058751;28;20029;-68
2021/05/12 02:18:06;;;;;;;10.77;6.95;;;12.10;93.00;;;;;;5060803;28;20024;-68
2021/05/12 02:20:34;;;;;;;13.55;8.85;;;12.10;92.90;;;;;;5064811;28;20503;-69
2021/05/12 02:23:03;;;;;;;9.50;7.82;;;12.20;93.00;;;;;;5060715;28;20098;-70
2021/05/12 02:25:29;;;;;;;12.98;8.65;;;12.10;93.00;;;;;;5054677;28;20032;-69
2021/05/12 02:27:55;;;;;;;13.57;9.45;;;12.10;93.10;;;;;;5063630;28;20099;-70
2021/05/12 02:30:21;;;;;;;14.98;10.73;;;12.20;93.10;;;;;;5058971;28;20071;-68
2021/05/12 02:32:47;;;;;;;13.43;10.27;;;12.20;93.10;;;;;;5058630;28;20111;-69
2021/05/12 02:35:15;;;;;;;18.08;11.60;;;12.20;93.00;;;;;;5057666;28;20115;-69
2021/05/12 02:37:40;;;;;;;14.55;9.88;;;12.20;93.20;;;;;;5058099;28;20506;-69
2021/05/12 02:40:09;;;;;;;15.32;9.73;;;12.10;93.00;;;;;;5063886;28;20359;-69
2021/05/12 02:42:36;;;;;;;13.77;10.40;;;12.10;93.10;;;;;;5057727;28;20017;-69
2021/05/12 02:45:03;;;;;;;17.88;11.45;;;12.10;93.00;;;;;;5062699;28;20028;-70
2021/05/12 02:47:28;;;;;;;15.40;11.07;;;12.10;93.00;;;;;;5057546;28;20028;-69
2021/05/12 02:49:54;;;;;;;15.77;10.73;;;12.10;93.10;;;;;;5058325;28;20497;-69
2021/05/12 02:52:20;;;;;;;14.10;9.75;;;12.10;93.10;;;;;;5056810;28;20052;-70
2021/05/12 02:54:46;;;;;;;17.45;11.93;;;12.10;93.20;;;;;;5059451;28;20029;-70
2021/05/12 02:57:12;;;;;;;16.25;10.68;;;12.10;93.20;;;;;;5039553;28;20028;-72
2021/05/12 02:59:38;;;;;;;16.52;10.90;;;12.10;93.20;;;;;;5057327;28;20457;-67
2021/05/12 03:02:03;;;;;;;18.85;10.73;;;12.10;93.20;;;;;;5058545;28;20031;-69
2021/05/12 03:04:29;;;;;;;12.60;9.23;;;12.10;93.20;;;;;;5059479;28;20033;-69
2021/05/12 03:06:58;;;;;;;16.17;9.98;;;12.00;93.30;;;;;;5054517;28;20072;-69
2021/05/12 03:09:24;;;;;;;17.23;10.85;;;12.10;93.30;;;;;;5058930;28;20380;-69
2021/05/12 03:11:50;;;;;;;15.52;10.00;;;12.10;93.40;;;;;;5059407;28;20028;-69
2021/05/12 03:14:16;;;;;;;19.80;11.40;;;12.10;93.30;;;;;;5060815;28;20554;-69
2021/05/12 03:16:42;;;;;;;14.30;10.15;;;12.10;93.20;;;;;;5060800;28;20035;-69
2021/05/12 03:19:08;;;;;;;15.77;10.05;;;12.00;93.40;;;;;;5060671;28;20033;-69
2021/05/12 03:21:34;;;;;;;16.48;10.82;;;12.10;93.50;;;;;;5062776;28;20025;-69
2021/05/12 03:24:02;;;;;;;16.73;11.18;;;12.10;93.50;;;;;;5038268;28;20048;-69
2021/05/12 03:26:28;;;;;;;14.95;11.15;;;12.10;93.40;;;;;;5057190;28;20041;-70
2021/05/12 03:28:54;;;;;;;17.75;11.57;;;12.10;93.40;;;;;;5059137;28;20029;-69
2021/05/12 03:31:20;;;;;;;19.00;11.52;;;12.10;93.50;;;;;;5058349;28;20438;-69
2021/05/12 03:33:46;;;;;;;17.35;10.95;;;12.00;93.40;;;;;;5064333;28;20025;-70
2021/05/12 03:36:12;;;;;;;17.80;10.93;;;12.00;93.40;;;;;;5062858;28;20390;-69
2021/05/12 03:38:39;;;;;;;21.20;11.80;;;12.10;93.50;;;;;;5060279;28;20032;-69
2021/05/12 03:41:06;;;;;;;18.52;12.25;;;12.10;93.50;;;;;;5057331;28;20025;-69
2021/05/12 03:43:33;;;;;;;20.23;12.63;;;12.10;93.50;;;;;;5059368;28;20043;-68
2021/05/12 03:46:00;;;;;;;21.02;12.75;;;12.10;93.60;;;;;;5057365;28;20040;-69
2021/05/12 03:48:25;;;;;;;19.45;13.05;;;12.10;93.50;;;;;;5058909;28;20097;-69
2021/05/12 03:50:51;;;;;;;18.60;13.10;;;12.10;93.50;;;;;;5050526;28;20116;-69
2021/05/12 03:53:16;;;;;;;19.42;12.68;;;12.10;93.60;;;;;;5060175;28;20031;-69
2021/05/12 03:55:43;;;;;;;21.95;13.55;;;12.10;93.50;;;;;;5061888;28;20040;-69
2021/05/12 03:58:09;;;;;;;22.25;14.02;;;12.10;93.50;;;;;;5063144;28;20060;-69
2021/05/12 04:00:35;;;;;;;17.48;10.77;;;12.20;93.70;;;;;;5061976;28;20029;-69
2021/05/12 04:03:01;;;;;;;20.00;12.55;;;12.50;93.60;;;;;;5061948;28;20478;-69
2021/05/12 04:05:27;;;;;;;18.83;12.80;;;12.70;92.90;;;;;;5065721;28;20115;-69
2021/05/12 04:07:52;;;;;;;19.58;12.93;;;12.70;92.50;;;;;;5061111;28;20040;-69
2021/05/12 04:10:19;;;;;;;19.13;13.23;;;12.70;92.60;;;;;;5065519;28;20028;-68
2021/05/12 04:12:45;;;;;;;19.38;12.15;;;12.50;92.60;;;;;;5062233;28;20044;-70
2021/05/12 04:15:11;;;;;;;20.20;13.60;;;12.50;92.70;;;;;;5043201;28;20035;-69
2021/05/12 04:17:37;;;;;;;19.33;12.63;;;12.40;92.80;;;;;;5063141;28;20556;-69
2021/05/12 04:20:05;;;;;;;19.02;11.25;;;12.30;92.90;;;;;;5064495;28;20028;-68
2021/05/12 04:22:30;;;;;;;18.42;11.98;;;12.30;93.00;;;;;;5065739;28;20124;-68
2021/05/12 04:24:57;;;;;;;18.88;11.32;;;12.30;93.10;;;;;;5059288;28;20107;-69
2021/05/12 04:27:22;;;;;;;18.67;11.60;;;12.30;93.30;;;;;;5064200;28;20056;-68
2021/05/12 04:29:48;;;;;;;19.77;13.02;;;12.30;93.20;;;;;;5059915;28;20056;-69
2021/05/12 04:32:14;;;;;;;20.23;13.00;;;12.30;93.30;;;;;;5061417;28;20024;-69
2021/05/12 04:34:40;;;;;;;15.95;9.65;;;12.30;93.30;;;;;;5066309;28;20043;-67
2021/05/12 04:37:06;;;;;;;19.00;11.60;;;12.30;93.40;;;;;;5062092;28;20033;-70
2021/05/12 04:39:31;;;;;;;22.20;12.02;;;12.30;93.30;;;;;;5061603;28;20498;-68
2021/05/12 04:41:57;;;;;;;18.60;11.70;;;12.30;93.40;;;;;;5059158;28;20115;-69
2021/05/12 04:44:23;;;;;;;17.73;9.88;;;12.30;93.40;;;;;;5061811;28;20047;-68
2021/05/12 04:46:49;;;;;;;20.27;11.93;;;12.30;93.50;;;;;;5059710;28;20060;-68
2021/05/12 04:49:16;;;;;;;18.60;10.75;;;12.30;93.40;;;;;;5064409;28;20039;-69
2021/05/12 04:51:42;;;;;;;16.77;10.63;;;12.40;93.50;;;;;;5053842;28;20450;-70
2021/05/12 04:54:08;;;;;;;16.35;10.00;;;12.40;93.50;;;;;;5061388;28;20499;-69
2021/05/12 04:56:34;;;;;;;18.50;10.75;;;12.40;93.50;;;;;;5060527;28;20098;-69
2021/05/12 04:59:02;;;;;;;21.45;12.48;;;12.40;93.60;;;;;;5059865;28;20025;-68
2021/05/12 05:01:29;;;;;;;22.58;13.15;;;12.40;93.50;;;;;;5059806;28;20063;-69
2021/05/12 05:03:58;;;;;;;21.77;13.07;;;12.40;93.50;;;;;;5056972;28;20041;-69
2021/05/12 05:06:23;;;;;;;19.65;13.43;;;12.40;93.50;;;;;;5059454;28;20029;-68
2021/05/12 05:08:49;;;;;;;23.35;12.63;;;12.40;93.50;;;;;;5068255;28;20032;-68
2021/05/12 05:11:14;;;;;;;26.05;13.70;;;12.40;93.60;;;;;;5060021;28;20036;-69
2021/05/12 05:13:40;;;;;;;19.27;12.55;;;12.40;93.40;;;;;;5065300;28;20044;-69
2021/05/12 05:16:06;;;;;;;20.42;12.65;;;12.30;93.60;;;;;;5060160;28;20981;-68
2021/05/12 05:18:32;;;;;;;19.70;11.77;;;12.30;93.60;;;;;;5061839;28;20037;-69
2021/05/12 05:20:59;;;;;;;17.45;10.43;;;12.30;93.70;;;;;;5058620;28;20295;-68
2021/05/12 05:23:26;;;;;;;16.83;10.75;;;12.30;93.70;;;;;;5060494;28;20129;-69
2021/05/12 05:25:52;;;;;;;16.90;11.35;;;12.30;93.70;;;;;;5062233;28;20045;-69
2021/05/12 05:28:18;;;;;;;17.80;11.07;;;12.30;93.70;;;;;;5065304;28;20036;-69
2021/05/12 05:30:43;;;;;;;16.13;10.20;;;12.30;93.70;;;;;;5059468;28;20546;-69
2021/05/12 05:33:09;;;;;;;17.63;10.77;;;12.40;93.80;;;;;;5042356;28;20108;-68
2021/05/12 05:35:35;;;;;;;17.98;10.25;;;12.40;93.80;;;;;;5058090;28;20025;-68
2021/05/12 05:38:02;;;;;;;15.20;8.50;;;12.40;93.80;;;;;;5059916;28;20569;-68
2021/05/12 05:40:28;;;;;;;15.07;9.88;;;12.40;93.80;;;;;;5058451;28;20036;-69
2021/05/12 05:42:59;;;;;;;14.05;9.35;;;12.40;93.70;;;;;;5045983;28;20506;-69
2021/05/12 05:45:27;;;;;;;15.53;9.77;;;12.40;93.60;;;;;;5061593;28;20479;-69
2021/05/12 05:47:53;;;;;;;17.20;10.07;;;12.40;93.60;;;;;;5060008;28;20033;-69
2021/05/12 05:50:20;;;;;;;16.83;9.32;;;12.40;93.50;;;;;;5060376;28;20819;-68
2021/05/12 05:52:46;;;;;;;13.55;8.48;;;12.40;93.60;;;;;;5062267;28;20103;-69
2021/05/12 05:55:12;;;;;;;16.52;9.77;;;12.40;93.60;;;;;;5059429;28;20478;-69
2021/05/12 05:57:38;;;;;;;14.63;9.32;;;12.40;93.50;;;;;;5066286;28;20046;-69
2021/05/12 06:00:05;;;;;;;15.35;9.52;;;12.50;93.60;;;;;;5059151;28;20025;-69
2021/05/12 06:02:31;;;;;;;18.55;10.80;;;12.50;93.50;;;;;;5059946;28;20755;-68
2021/05/12 06:04:57;;;;;;;15.75;9.52;;;12.50;93.40;;;;;;5059750;28;20390;-69
2021/05/12 06:07:22;;;;;;;16.63;10.23;;;12.50;93.40;;;;;;5064160;28;20086;-69
2021/05/12 06:09:49;;;;;;;18.10;9.82;;;12.50;93.30;;;;;;5057348;28;20525;-69
2021/05/12 06:12:14;;;;;;;13.95;8.80;;;12.50;93.40;;;;;;5059549;28;20070;-70
2021/05/12 06:14:40;;;;;;;16.85;9.85;;;12.50;93.50;;;;;;5061627;28;20440;-69
2021/05/12 06:17:06;;;;;;;17.73;10.68;;;12.50;93.40;;;;;;5060085;28;20025;-69
2021/05/12 06:19:32;;;;;;;18.38;10.38;;;12.50;93.30;;;;;;5058783;28;20112;-68
2021/05/12 06:21:57;;;;;;;13.10;8.45;;;12.50;93.40;;;;;;5063594;28;20032;-68
2021/05/12 06:24:23;;;;;;;13.90;8.73;;;12.50;93.70;;;;;;5057926;28;20037;-69
2021/05/12 06:26:50;;;;;;;17.25;9.27;;;12.60;93.40;;;;;;5055462;28;20071;-68
2021/05/12 06:29:16;;;;;;;15.10;9.52;;;12.60;93.30;;;;;;5058233;28;20024;-68
2021/05/12 06:31:42;;;;;;;13.88;7.80;;;12.60;93.30;;;;;;5061557;28;20078;-69
2021/05/12 06:34:07;;;;;;;15.63;8.43;;;12.60;93.40;;;;;;5058760;28;20115;-69
2021/05/12 06:36:33;;;;;;;13.40;7.40;;;12.70;93.70;;;;;;5064434;28;20506;-69
2021/05/12 06:38:59;;;;;;;11.88;7.47;;;12.80;93.60;;;;;;5057164;28;20020;-69
2021/05/12 06:41:29;;;;;;;11.40;7.28;;;13.10;93.10;;;;;;5058255;28;20033;-70
2021/05/12 06:43:56;;;;;;;11.88;7.47;;;13.10;92.80;;;;;;5057408;28;20033;-69
2021/05/12 06:46:22;;;;;;;14.02;9.18;;;13.10;92.90;;;;;;5059258;28;20098;-69
2021/05/12 06:48:47;;;;;;;11.70;8.35;;;13.00;92.90;;;;;;5061053;28;20093;-70
2021/05/12 06:51:13;;;;;;;11.45;6.15;;;13.00;92.90;;;;;;5063737;28;20028;-69
2021/05/12 06:53:39;;;;;;;11.18;7.32;;;13.00;93.00;;;;;;5058795;28;20028;-68
2021/05/12 06:56:05;;;;;;;12.38;8.73;;;12.90;93.00;;;;;;5060850;28;20086;-70
2021/05/12 06:58:32;;;;;;;13.75;8.15;;;12.90;93.00;;;;;;5062723;28;20028;-70
2021/05/12 07:00:57;;;;;;;9.00;6.40;;;12.90;93.20;;;;;;5062315;28;20025;-69
2021/05/12 07:03:23;;;;;;;15.65;9.32;;;12.90;93.30;;;;;;5056775;28;20175;-68
2021/05/12 07:05:51;;;;;;;15.93;8.88;;;12.90;93.30;;;;;;5058558;28;20554;-69
2021/05/12 07:08:17;;;;;;;15.40;8.05;;;12.90;93.30;;;;;;5057767;28;20040;-69
2021/05/12 07:10:43;;;;;;;13.23;8.23;;;12.90;93.30;;;;;;5063676;28;20124;-70
2021/05/12 07:13:08;;;;;;;14.30;7.70;;;12.90;93.30;;;;;;5062470;28;20024;-70
2021/05/12 07:15:35;;;;;;;17.60;9.90;;;12.80;93.40;;;;;;5064382;28;20048;-68
2021/05/12 07:18:02;;;;;;;14.93;9.05;;;12.80;93.40;;;;;;5044809;28;20127;-70
2021/05/12 07:20:28;;;;;;;14.95;8.93;;;12.80;93.30;;;;;;5061839;28;20021;-69
2021/05/12 07:23:09;;;;;;;14.48;7.47;;;12.80;93.50;;;;;;5061937;28;20028;-69
2021/05/12 07:25:35;;;;;;;17.30;11.00;;;12.80;93.50;;;;;;5057529;28;20024;-68
2021/05/12 07:28:02;;;;;;;16.42;9.60;;;12.80;93.50;;;;;;5044123;28;20021;-69
2021/05/12 07:30:28;;;;;;;15.10;8.43;;;12.90;93.70;;;;;;5059387;28;20096;-69
2021/05/12 07:32:54;;;;;;;19.65;10.13;;;12.90;93.70;;;;;;5060893;28;20482;-70
2021/05/12 07:35:20;;;;;;;17.65;10.02;;;13.00;93.70;;;;;;5051836;28;20032;-70
2021/05/12 07:37:46;;;;;;;14.63;9.50;;;13.10;93.50;;;;;;5048253;28;20374;-70
2021/05/12 07:40:13;;;;;;;13.05;7.97;;;13.10;93.30;;;;;;5059802;28;20488;-70
2021/05/12 07:42:41;;;;;;;13.18;8.50;;;13.10;93.50;;;;;;5045092;28;20053;-73
2021/05/12 07:45:07;;;;;;;14.23;7.97;;;13.20;93.70;;;;;;5047570;28;20126;-70
2021/05/12 07:47:33;;;;;;;17.17;8.38;;;13.20;93.30;;;;;;5059378;28;20036;-70
2021/05/12 07:49:59;;;;;;;13.60;8.93;;;13.20;93.30;;;;;;5063949;28;20017;-70
2021/05/12 07:52:25;;;;;;;14.60;10.57;;;13.30;93.30;;;;;;5064427;28;20107;-71
2021/05/12 07:54:52;;;;;;;16.13;7.85;;;13.30;93.00;;;;;;5064497;28;20518;-70
2021/05/12 07:57:18;;;;;;;16.95;8.73;;;13.20;93.10;;;;;;5061746;28;20107;-71
2021/05/12 07:59:46;;;;;;;16.70;7.60;;;13.20;92.90;;;;;;5065341;28;20028;-72
2021/05/12 08:02:12;;;;;;;16.08;8.75;;;13.20;92.70;;;;;;5069312;28;20040;-74
2021/05/12 08:04:38;;;;;;;15.20;7.68;;;13.20;92.70;;;;;;5053471;28;20039;-71
2021/05/12 08:07:04;;;;;;;18.63;9.25;;;13.20;92.90;;;;;;5069530;28;20055;-74
2021/05/12 08:09:31;;;;;;;16.63;8.18;;;13.20;93.00;;;;;;5060941;28;20487;-74
2021/05/12 08:11:57;;;;;;;15.13;9.20;;;13.20;93.00;;;;;;5067999;28;20062;-74
2021/05/12 08:14:23;;;;;;;15.77;8.48;;;13.20;93.10;;;;;;5065752;28;20056;-75
2021/05/12 08:16:49;;;;;;;13.10;8.32;;;13.20;93.20;;;;;;5067059;28;20031;-72
2021/05/12 08:19:15;;;;;;;18.20;9.18;;;13.20;93.30;;;;;;5067383;28;20523;-72
2021/05/12 08:21:44;;;;;;;15.75;7.80;;;13.20;93.00;;;;;;5055722;28;20027;-72
2021/05/12 08:24:10;;;;;;;17.23;9.35;;;13.20;93.20;;;;;;5041920;28;20048;-70
2021/05/12 08:26:36;;;;;;;12.05;7.43;;;13.30;93.30;;;;;;5067626;28;20037;-72
2021/05/12 08:29:04;;;;;;;13.27;8.27;;;13.30;93.20;;;;;;5063436;28;20037;-71
2021/05/12 08:31:31;;;;;;;18.88;7.68;;;13.30;93.30;;;;;;5064220;28;20035;-72
2021/05/12 08:33:57;;;;;;;16.65;9.80;;;13.40;93.40;;;;;;5055553;28;20025;-70
2021/05/12 08:36:23;;;;;;;16.63;8.27;;;13.40;93.40;;;;;;5065367;28;20082;-72
2021/05/12 08:38:49;;;;;;;14.07;8.20;;;13.40;93.30;;;;;;5065251;28;20027;-72
2021/05/12 08:41:16;;;;;;;18.55;9.10;;;13.40;92.80;;;;;;5065674;28;20064;-73
2021/05/12 08:43:42;;;;;;;17.08;8.70;;;13.40;92.90;;;;;;5061564;28;20050;-71
2021/05/12 08:46:13;;;;;;;20.92;10.02;;;13.50;93.10;;;;;;5056230;28;20140;-73
2021/05/12 08:48:41;;;;;;;;;;;13.50;92.80;;;;;;5055921;28;20079;-73
2021/05/12 08:51:15;;;;;;;15.70;9.25;;;13.50;92.80;;;;;;5071847;28;20243;-73
2021/05/12 08:53:40;;;;;;;13.02;7.88;;;13.50;92.80;;;;;;5070085;28;20036;-72
2021/05/12 08:56:06;;;;;;;19.75;7.90;;;13.50;93.00;;;;;;5066135;28;20024;-69
2021/05/12 08:58:33;;;;;;;17.52;8.73;;;13.60;92.90;;;;;;5063750;28;20044;-72
2021/05/12 09:01:00;;;;;;;14.05;7.65;;;13.60;92.90;;;;;;5064878;28;20035;-72
2021/05/12 09:03:27;;;;;;;17.17;7.90;;;13.80;93.00;;;;;;5061106;28;20047;-72
2021/05/12 09:05:56;;;;;;;15.07;6.90;;;13.90;92.90;;;;;;5070302;28;20037;-71
2021/05/12 09:08:25;;;;;;;10.63;5.43;;;14.10;92.70;;;;;;5063984;28;20044;-71
2021/05/12 09:10:52;;;;;;;13.90;6.78;;;14.10;92.30;;;;;;5063014;28;20032;-70
2021/05/12 09:13:34;;;;;;;12.63;6.57;;;14.20;92.10;;;;;;5062234;28;20025;-76
2021/05/12 09:16:29;;;;;;;13.07;6.43;;;14.30;91.80;;;;;;5060551;28;20437;-71
2021/05/12 09:19:04;;;;;;;11.57;5.95;;;14.30;91.60;;;;;;5062109;28;20032;-70
2021/05/12 09:21:53;;;;;;;13.65;5.40;;;14.30;91.30;;;;;;5068355;28;20028;-70
2021/05/12 09:24:35;;;;;;;13.65;6.28;;;14.20;91.10;;;;;;5066918;28;20534;-71
2021/05/12 09:27:10;;;;;;;13.98;5.32;;;14.20;91.20;;;;;;5055119;28;20056;-70
2021/05/12 09:29:38;;;;;;;8.50;4.07;;;14.20;90.90;;;;;;5059282;28;20060;-71
2021/05/12 09:32:11;;;;;;;10.35;5.03;;;14.20;91.20;;;;;;5064632;28;20040;-71
2021/05/12 09:35:03;;;;;;;9.98;5.75;;;14.20;91.40;;;;;;5067177;28;20035;-71
2021/05/12 09:37:29;;;;;;;;;;;14.20;90.90;;;;;;5048039;28;20021;-71
2021/05/12 09:39:56;;;;;;;11.98;5.75;;;14.10;91.00;;;;;;5054139;28;19920;-71
2021/05/12 09:42:23;;;;;;;8.73;5.07;;;14.10;91.00;;;;;;5054028;28;20029;-70
2021/05/12 09:45:07;;;;;;;9.32;5.30;;;14.10;91.00;;;;;;5068945;28;20056;-72
2021/05/12 09:47:33;;;;;;;11.68;5.15;;;14.20;91.10;;;;;;5063074;28;20043;-71
2021/05/12 09:50:06;;;;;;;9.77;4.40;;;14.30;91.10;;;;;;5059074;28;20422;-71
2021/05/12 09:52:32;;;;;;;7.10;3.95;;;14.40;90.80;;;;;;5062841;28;20029;-70
2021/05/12 09:55:03;;;;;;;11.52;5.15;;;14.40;90.50;;;;;;5050710;28;20047;-71
2021/05/12 09:57:29;;;;;;;13.25;5.18;;;14.40;90.20;;;;;;5064855;28;20391;-71
2021/05/12 09:59:55;;;;;;;12.60;4.97;;;14.40;90.10;;;;;;5058982;28;20109;-70
2021/05/12 10:02:21;;;;;;;8.82;4.35;;;14.30;90.00;;;;;;5069480;28;20439;-71
2021/05/12 10:04:48;;;;;;;7.68;4.47;;;14.30;90.20;;;;;;5064901;28;20029;-71
2021/05/12 10:07:19;;;;;;;8.75;4.05;;;14.30;90.10;;;;;;5057924;28;20391;-71
2021/05/12 10:09:47;;;;;;;8.77;4.20;;;14.40;90.40;;;;;;5062675;28;20029;-71
2021/05/12 10:12:15;;;;;;;6.53;3.95;;;14.40;90.20;;;;;;5046322;28;20082;-71
2021/05/12 10:14:44;;;;;;;10.05;4.35;;;14.40;89.90;;;;;;5065581;28;20033;-71
2021/05/12 10:17:16;;;;;;;9.63;3.90;;;14.40;89.80;;;;;;5058015;28;20115;-71
2021/05/12 10:19:43;;;;;;;11.02;4.07;;;14.40;90.00;;;;;;5063074;28;20025;-68
2021/05/12 10:22:10;;;;;;;6.95;3.10;;;14.40;89.80;;;;;;5058883;28;20414;-69
2021/05/12 10:24:39;;;;;;;7.57;3.47;;;14.40;89.90;;;;;;5058103;28;20025;-69
2021/05/12 10:27:23;;;;;;;5.22;2.45;;;14.40;89.80;;;;;;5064152;28;20040;-71
2021/05/12 10:29:53;;;;;;;7.38;4.10;;;14.40;90.20;;;;;;5057464;28;20108;-69
2021/05/12 10:32:30;;;;;;;8.73;4.13;;;14.50;89.90;;;;;;5062696;28;20520;-70
2021/05/12 10:35:06;;;;;;;6.20;3.42;;;14.50;89.20;;;;;;5047013;28;20367;-69
2021/05/12 10:37:37;;;;;;;8.43;4.72;;;14.50;88.70;;;;;;5062166;28;20024;-70
2021/05/12 10:40:22;;;;;;;5.38;3.00;;;14.50;88.70;;;;;;5052560;28;20029;-69
2021/05/12 10:45:31;;;;;;;7.03;2.78;;;14.60;89.40;;;;;;5062005;28;20510;-69
2021/05/12 10:47:56;;;;;;;6.60;3.17;;;14.50;88.80;;;;;;5057821;28;20114;-70
2021/05/12 10:50:45;;;;;;;6.10;2.88;;;14.60;89.50;;;;;;5060877;28;20486;-70
2021/05/12 10:53:23;;;;;;;7.35;2.70;;;14.70;87.90;;;;;;5063388;28;20394;-71
2021/05/12 10:55:59;;;;;;;5.70;2.50;;;14.80;89.20;;;;;;5063419;28;20039;-71
2021/05/12 10:58:29;;;;;;;6.30;3.55;;;14.90;87.50;;;;;;5064511;28;20111;-71
2021/05/12 11:01:03;;;;;;;5.72;3.38;;;15.00;87.20;;;;;;5063464;28;20381;-70
2021/05/12 11:03:51;;;;;;;4.32;2.72;;;15.00;86.40;;;;;;5057093;28;20032;-71
2021/05/12 11:06:21;;;;;;;7.40;3.63;;;15.10;86.40;;;;;;5063734;28;20029;-70
2021/05/12 11:09:07;;;;;;;3.97;3.05;;;15.10;86.10;;;;;;5056692;28;20051;-72
2021/05/12 11:11:45;;;;;;;6.18;3.50;;;15.10;87.10;;;;;;5059025;28;20044;-70
2021/05/12 11:14:29;;;;;;;5.22;3.88;;;15.10;85.40;;;;;;5057470;28;20036;-70
2021/05/12 11:17:09;;;;;;;9.10;3.20;;;15.10;85.40;;;;;;5061208;28;20423;-71
2021/05/12 11:19:45;;;;;;;6.03;3.78;;;15.00;85.90;;;;;;5045509;28;20107;-71
2021/05/12 11:25:05;;;;;;;9.07;4.90;;;15.00;86.40;;;;;;5066335;28;20474;-70
2021/05/12 11:32:38;;;;;;;8.88;5.25;;;15.30;86.30;;;;;;5061739;28;20051;-71
2021/05/12 11:35:19;;;;;;;9.93;6.28;;;15.30;86.20;;;;;;5065517;28;20036;-69
2021/05/12 11:37:45;;;;;;;12.63;5.43;;;15.20;84.80;;;;;;5058652;28;20029;-69
2021/05/12 11:40:11;;;;;;;8.45;4.82;;;15.10;86.00;;;;;;5054888;28;20024;-70
2021/05/12 11:42:37;;;;;;;9.82;6.10;;;15.10;86.70;;;;;;5057026;28;20050;-70
2021/05/12 11:45:13;;;;;;;14.55;6.32;;;15.10;86.70;;;;;;5051245;28;20469;-71
2021/05/12 11:47:41;;;;;;;12.13;6.55;;;15.10;86.80;;;;;;5053386;28;20124;-71
2021/05/12 11:50:33;;;;;;;14.57;6.97;;;15.10;86.70;;;;;;5058621;28;20367;-72
2021/05/12 11:52:59;;;;;;;14.68;6.88;;;15.20;86.00;;;;;;5043951;28;20048;-72
2021/05/12 11:55:30;;;;;;;14.93;6.15;;;15.20;85.10;;;;;;5061613;28;20341;-72
2021/05/12 11:57:56;;;;;;;15.48;5.65;;;15.30;86.30;;;;;;5055085;28;20025;-71
2021/05/12 12:00:28;;;;;;;13.50;5.70;;;15.50;86.80;;;;;;5060092;28;20033;-70
2021/05/12 12:03:02;;;;;;;17.95;5.00;;;15.70;84.50;;;;;;5055640;28;20111;-70
2021/05/12 12:08:14;;;;;;;72.90;36.35;;;15.90;80.40;;;;;;5049586;28;20028;-71
2021/05/12 12:10:41;;;;;;;97.45;53.67;;;16.10;79.30;;;;;;5058675;28;20104;-70
2021/05/12 12:13:16;;;;;;;15.93;6.85;;;16.30;79.70;;;;;;5061143;28;20033;-71
2021/05/12 12:15:44;;;;;;;18.45;5.22;;;16.40;77.70;;;;;;5057162;28;20053;-70
2021/05/12 12:18:10;;;;;;;9.60;3.30;;;16.40;77.80;;;;;;5062722;28;20116;-72
2021/05/12 12:20:37;;;;;;;8.65;2.92;;;16.40;77.80;;;;;;5059595;28;20435;-71
2021/05/12 12:23:04;;;;;;;7.53;2.92;;;16.40;77.80;;;;;;5061530;28;20036;-71
2021/05/12 12:25:41;;;;;;;8.80;2.60;;;16.50;78.00;;;;;;5065371;28;20020;-71
2021/05/12 12:28:06;;;;;;;12.05;3.67;;;16.50;78.80;;;;;;5066191;28;20021;-71
2021/05/12 12:30:32;;;;;;;7.28;2.65;;;16.50;76.70;;;;;;5060911;28;20036;-72
2021/05/12 12:32:58;;;;;;;12.02;2.90;;;16.50;77.20;;;;;;5065056;28;20021;-73
2021/05/12 12:35:24;;;;;;;12.45;3.00;;;16.50;77.10;;;;;;5061599;28;20051;-72
2021/05/12 12:37:49;;;;;;;7.32;2.55;;;16.50;76.00;;;;;;5065966;28;20052;-72
2021/05/12 12:40:15;;;;;;;12.13;3.33;;;16.70;77.20;;;;;;5059350;28;20487;-71
2021/05/12 12:42:48;;;;;;;7.10;3.00;;;17.00;75.90;;;;;;5068768;28;20086;-71
2021/05/12 12:45:29;;;;;;;10.15;3.05;;;17.30;75.70;;;;;;5062500;28;20047;-70
2021/05/12 12:47:57;;;;;;;8.77;2.50;;;17.30;72.60;;;;;;5065064;28;20440;-72
2021/05/12 12:50:28;;;;;;;6.03;2.58;;;17.20;72.30;;;;;;5065716;28;20517;-71
2021/05/12 12:52:56;;;;;;;;;;;17.00;73.00;;;;;;5064156;28;20544;-71
2021/05/12 12:55:27;;;;;;;7.10;2.35;;;16.80;73.50;;;;;;5072530;28;19916;-71
2021/05/12 12:58:00;;;;;;;;;;;16.50;74.70;;;;;;5059278;28;20438;-71